Decoded METAR Reports


Created by using MetarWeather

Station Name Location Elevation Time Temperature Dew Point RH Heat Index Wind Visibility Pressure Sky Condition Weather Remarks METAR
Alexandroupolis  40.85N 25.92E  3m  29/04/2016 13:20:00  18.0C  8.0C  52%  N/A  6 km/h, Variable  > 10000m  1016.9 mb  Few clouds at 1100m
 
      LGAL 291020Z VRB03KT 9999 FEW035 18/08 Q1017 
Andravida (Civ/A  37.92N 21.27E  12m  29/04/2016 13:20:00  22.0C  9.0C  43%  25.0C  24 km/h, NNE (20 degrees)  > 10000m  1012.9 mb  Scattered clouds at 2400m
Broken clouds at 5500m
 
      LGAD 291020Z 02013KT 9999 SCT080 BKN180 22/09 Q1013 
Araxos (Civ/Afb)  38.17N 21.42E  15m  29/04/2016 13:20:00  22.0C  10.0C  46%  25.0C  20 km/h, NE (50 degrees)  > 10000m  1012.9 mb  Scattered clouds at 2400m
Broken clouds at 5500m
 
      LGRX 291020Z 05011KT 9999 SCT080 BKN180 22/10 Q1013 
Athens/Elef-Ven  37.93N 23.95E  94m  29/04/2016 13:20:00  22.0C  7.0C  38%  24.9C  19 km/h, E (80 degrees)  > 10000m  1015.9 mb  Few clouds at 910m
 
      LGAV 291020Z 08010KT 9999 FEW030 22/07 Q1016 NOSIG 
Chios Airport  38.32N 26.12E  4m  29/04/2016 12:50:00  21.0C  11.0C  53%  N/A  7 km/h, ENE (60 degrees)  > 10000m  1015.9 mb           LGHI 290950Z 06004KT 340V140 CAVOK 21/11 Q1016 
Elefsis (Hel-Afb  38.07N 23.55E  31m  29/04/2016 12:50:00  24.0C  6.0C  31%  25.1C  15 km/h, SSW (200 degrees)  > 10000m  1014.9 mb  Few clouds at 760m
Scattered clouds at 2100m
Broken clouds at 5500m
 
      LGEL 290950Z 20008KT 9999 FEW025 SCT070 BKN180 24/06 Q1015 
Ioannis Kapodist  39.60N 19.92E  2m  29/04/2016 13:20:00  17.0C  15.0C  88%  N/A  7 km/h, N (350 degrees)  > 10000m  1013.9 mb  Broken clouds at 1100m
Broken clouds at 2400m
 
      LGKR 291020Z 35004KT 9999 BKN035 BKN080 17/15 Q1014 NOSIG 
Iraklion (Civ/Af  35.32N 25.17E  39m  29/04/2016 13:20:00  30.0C  6.0C  22%  28.3C  28 km/h, SSE (150 degrees)  > 10000m  1012.9 mb           LGIR 291020Z 15015KT CAVOK 30/06 Q1013 NOSIG 
Kalamata (Hel-Af  37.07N 22.02E  8m  29/04/2016 13:20:00  27.0C  3.0C  21%  26.1C  Calm  > 10000m  1011.9 mb  Scattered clouds at 2400m
 
      LGKL 291020Z 00000KT 9999 SCT080 27/03 Q1012 
Karpathos  35.42N 27.15E  20m  29/04/2016 13:20:00  22.0C  12.0C  53%  24.8C  9 km/h, SSE (150 degrees)  > 10000m  1015.9 mb           LGKP 291020Z 15005KT CAVOK 22/12 Q1016 
Kavala/Chrisoupo  40.92N 24.62E  5m  29/04/2016 13:20:00  16.0C  11.0C  72%  N/A  7 km/h, W (260 degrees)  > 10000m  1016.9 mb  Few clouds at 460m
Scattered clouds at 1400m
Overcast at 2400m
 
      LGKV 291020Z 26004KT 9999 FEW015 SCT045 OVC080 16/11 Q1017 
Kefallinia  38.12N 20.50E  18m  29/04/2016 11:50:00  22.0C  10.0C  46%  25.0C  13 km/h, S (170 degrees)  > 10000m  1013.9 mb  Few clouds at 610m
Scattered clouds at 2400m
Broken clouds at 5500m
 
      LGKF 290850Z 17007KT 9999 FEW020 SCT080 BKN180 22/10 Q1014 
Kos Airport  36.80N 27.08E  130m  29/04/2016 13:20:00  25.0C  8.0C  34%  25.5C  11 km/h, NE (40 degrees)  > 10000m  1014.9 mb           LGKO 291020Z 04006KT CAVOK 25/08 Q1015 
Kozani (Civ/Army  40.28N 21.85E  630m  29/04/2016 12:50:00  13.0C  10.0C  82%  N/A  Calm  > 10000m  1016.9 mb  Scattered clouds at 180m
Broken clouds at 760m
Overcast at 2100m
 
      LGKZ 290950Z 00000KT 9999 SCT006 BKN025 OVC070 13/10 Q1017 
Limnos Island Ar  39.92N 25.23E  5m  29/04/2016 13:20:00  18.0C  13.0C  73%  N/A  9 km/h, NNE (30 degrees)  > 10000m  1015.9 mb  Scattered clouds at 610m
Broken clouds at 2400m
Overcast at 5500m
 
      LGLM 291020Z 03005KT 9999 SCT020 BKN080 OVC180 18/13 Q1016 
Mikonos Island  37.43N 25.35E  120m  29/04/2016 13:20:00  24.0C  7.0C  34%  25.1C  11 km/h, ENE (70 degrees)  > 10000m  1015.9 mb           LGMK 291020Z 07006KT CAVOK 24/07 Q1016 
Mitilini  39.05N 26.60E  17m  29/04/2016 13:20:00  19.0C  12.0C  64%  N/A  Calm  > 10000m  1016.9 mb  Few clouds at 910m
Broken clouds at 5200m
 
      LGMT 291020Z 00000KT 9999 FEW030 BKN170 19/12 Q1017 
Paros  37.00N 25.07E  36m  29/04/2016 13:20:00  24.0C  6.0C  31%  25.1C  22 km/h, S (170 degrees)    1014.9 mb           LGPA 291020Z AUTO 17012KT //// // ////// 24/06 Q1015 RE// 
Preveza/Aktion  38.62N 20.77E  4m  29/04/2016 13:20:00  19.0C  13.0C  68%  N/A  20 km/h, NE (40 degrees)  > 10000m  1012.9 mb  Few clouds at 760m
Broken clouds at 2400m
 
      LGPZ 291020Z 04011KT 9999 FEW025 BKN080 19/13 Q1013 
Rhodes/Diagoras  36.40N 28.08E  5m  29/04/2016 13:20:00  23.0C  11.0C  47%  25.1C  11 km/h, W (270 degrees)  > 10000m  1014.9 mb           LGRP 291020Z 27006KT CAVOK 23/11 Q1015 NOSIG 
Samos Airport  37.68N 26.92E  6m  29/04/2016 13:20:00  25.0C  17.0C  61%  26.0C  11 km/h, E (80 degrees)  > 10000m  1014.9 mb           LGSM 291020Z 08006KT CAVOK 25/17 Q1015 
Santorini Island  36.40N 25.48E  40m  29/04/2016 12:50:00  22.0C  12.0C  53%  24.8C  9 km/h, NE (40 degrees)  > 10000m  1014.9 mb           LGSR 290950Z 04005KT 020V100 CAVOK 22/12 Q1015 
Skiathos Island  39.18N 23.50E  15m  29/04/2016 09:50:00  18.0C  15.0C  83%  N/A    > 10000m  1016.9 mb  Few clouds at 300m
Scattered clouds at 760m
Broken clouds at 5500m
 
      LGSK 290650Z /////KT 9999 FEW010 SCT025 BKN180 18/15 Q1017 
Souda/Khania (Af  35.47N 24.12E  150m  29/04/2016 11:50:00  22.0C  14.0C  61%  24.4C  15 km/h, ESE (110 degrees)  > 10000m  1013.9 mb           LGSA 290850Z 11008KT CAVOK 22/14 Q1014 
Syros  37.42N 24.95E  72m  29/04/2016 12:50:00  22.0C  10.0C  46%  25.0C  11 km/h, NE (50 degrees)  > 10000m  1015.9 mb           LGSO 290950Z 05006KT CAVOK 22/10 Q1016 
Thessaloniki/Mik  40.52N 22.97E  7m  29/04/2016 13:20:00  15.0C  13.0C  88%  N/A  4 km/h, Variable  > 10000m  1016.9 mb  Few clouds at 240m
Few cumulus clouds at 610m
Broken clouds at 910m
Overcast at 2400m
 
Light Rain
 
   LGTS 291020Z VRB02KT 9999 -RA FEW008 FEW020TCU BKN030 OVC080 15/13 Q1017 NOSIG 
Zakinthos Airpor  37.75N 20.87E  3m  29/04/2016 13:20:00  22.0C  7.0C  38%  24.9C  17 km/h, NNW (330 degrees)  > 10000m  1012.9 mb  Few clouds at 610m
Scattered clouds at 2400m
 
      LGZA 291020Z 33009KT 9999 FEW020 SCT080 22/07 Q1013